默认 日期 大小 文件数 浏览量 最新下载 xml
mgb-磁力链接相关资源由用户搜索指令自动获取,结果来源于网络,本站不存储任何资料,亦不承担任何责任,请于24小时内删除,搜索到2053个磁力,用时2ms。
    ... Movie 2010 720p BluRay x264-MgB.mp4": 130400068, "Despicable Me Home ... Movie 2010 720p Bluray x264-MgB.mp4": 132339845, "Despicable Me Orientation ... Movie 2010 720p BluRay x264-MgB.mp4": 129866651}
创建时间: 2019-02-21 22:16:02 大小:380.48 MB 文件数量:17 热度:1 最近下载:2021-06-17 16:25:58
    ... Extras) 720p x264-MgB": {"Alternate Ending 720p-MgB.mp4": 131806572, ... "Deleted Scene.12.720p-MgB.mp4": 143414321, "Weyland files ... David Weyland 720p-MgB.mp4": 58743788, "Weyland ... Weyland files elizabeth shaw 720p-MgB.mp4": 61002563}, "Prometheus ...
创建时间: 2019-02-22 00:03:36 大小:4.52 GB 文件数量:34 热度:1 最近下载:2021-06-17 16:25:58
    ... 2013 720p BluRay DTS x264-MgB (Sample).mkv": 42566898}, "Screens": {"1 ... 2013 720p BluRay DTS x264-MgB.mkv": 4687458702, "Torrent Downloaded From ...
创建时间: 2019-02-22 07:50:43 大小:4.42 GB 文件数量:17 热度:3 最近下载:2025-03-03 08:34:03
    ... Degeneration 2008 720p BRRip x264-MgB.mkv": 1764784877, "Resident Evil Degeneration ... 2008 720p BRRip x264-MgB (Sample).mkv": 20266283}
创建时间: 2019-02-22 14:03:07 大小:1.67 GB 文件数量:12 热度:1 最近下载:2021-06-17 16:25:58
    ... Ledge 2012 720p BRRip x264-MgB.mp4": 1882992662, "Torrent Downloaded From ...
创建时间: 2019-02-23 05:43:30 大小:1.76 GB 文件数量:10 热度:1 最近下载:2021-06-17 16:25:58
    ... 2012 720p BluRay DTS x264-MgB (Sample).mkv": 40750434}, "Screens": {"1 ... 2012 720p BluRay DTS x264-MgB.mkv": 3765184142, "Tad The Lost ... 2012 720p BluRay DTS x264-MgB English.srt": 61783}
创建时间: 2019-02-25 04:24:34 大小:3.55 GB 文件数量:11 热度:3 最近下载:2025-01-24 23:42:06
    ... 1975 720p BluRay DTS x264-MgB (Sample).mkv": 45437263}, "Screens": {"1 ... 1975 720p BluRay DTS x264-MgB.mkv": 4688427522, "Torrent Downloaded From ...
创建时间: 2019-02-26 06:31:24 大小:4.42 GB 文件数量:13 热度:4 最近下载:2025-01-03 15:19:03
    ... 2011 BluRay 720p DTS x264-MgB (Sample).mkv": 64149116}, "Screens": {" ... 2011 BluRay 720p DTS x264-MgB Korean.smi": 160342, "The ... 2011 BluRay 720p DTS x264-MgB Vietnamese.srt": 211152, "The ... 2011 BluRay 720p DTS x264-MgB Brazillian-Portuguese.srt": 106621}, " ...
创建时间: 2019-02-26 23:31:57 大小:4.43 GB 文件数量:21 热度:2 最近下载:2025-02-24 03:55:04
    ... Tide 2012 720p BRRip x264-MgB.mp4": 2092514834, "Torrent Downloaded From ...
创建时间: 2019-02-28 06:45:06 大小:1.95 GB 文件数量:10 热度:4 最近下载:2024-09-25 03:18:01
    ... -HD MA 7.1 x264-MgB [ETRG] (Sample).mkv": 76240495}, " ... -HD MA 7.1 x264-MgB [ETRG] Arabic.srt": 50014, " ... -HD MA 7.1 x264-MgB [ETRG] French.srt": 56226, " ... -HD MA 7.1 x264-MgB [ETRG] English.srt": 57949, " ... -HD MA 7.1 x264-MgB [ETRG] Vietnamese.srt": 111142}, " ...
创建时间: 2019-02-28 20:28:39 大小:6.97 GB 文件数量:19 热度:5 最近下载:2024-06-09 17:47:01
    {"Hitman 2007 Unrated 720p BluRay DTS x264-MgB.mkv": 4690356609, "Hitman 2007 Unrated 720p BluRay DTS x264-MgB.smi": 70353}
创建时间: 2019-03-01 08:02:50 大小:4.37 GB 文件数量:2 热度:1 最近下载:2021-06-17 16:25:58
    ... BluRay 720p DTS-ES x264-MgB [ETRG] (Sample).mkv": 41832594}, " ... BluRay 720p DTS-ES x264-MgB [ETRG] Portuguese.srt": 71363, " ... BluRay 720p DTS-ES x264-MgB [ETRG] Vietnamese.srt": 148414, " ... BluRay 720p DTS-ES x264-MgB [ETRG] Brazillian-Portuguese.srt": ...
创建时间: 2019-03-17 10:07:01 大小:5.99 GB 文件数量:38 热度:3 最近下载:2025-04-14 22:42:03
    ... 2012 BluRay 720p DTS x264-MgB [ETRG] (Sample).mkv": 81611095}, " ... 2012 BluRay 720p DTS x264-MgB [ETRG] Brazilian.srt": 70947, " ... 2012 BluRay 720p DTS x264-MgB [ETRG] Bulgarian.srt": 57226, " ... 2012 BluRay 720p DTS x264-MgB [ETRG] Hungarian.srt": 71893, " ...
创建时间: 2019-03-17 12:39:51 大小:8.02 GB 文件数量:31 热度:0 最近下载:2021-06-17 16:25:58
    ... Edition 720p BluRay DTS x264-MgB (Sample).mkv": 26979840}, "Screens": {"1 ... Edition 720p BluRay DTS x264-MgB.mkv": 3703876492}
创建时间: 2019-03-17 15:14:19 大小:3.49 GB 文件数量:15 热度:2 最近下载:2025-01-24 21:56:01
    ... Dodger 2002 720p BRRip x264 -MgB.mp4": 1324686702, "Torrent Downloaded From ...
创建时间: 2019-03-17 16:12:16 大小:1.24 GB 文件数量:10 热度:1 最近下载:2021-06-17 16:25:58
    ... -HD HR 7.1 x264-MgB [ETRG] (Sample).mkv": 73478618}, "Screens ... -HD HR 7.1 x264-MgB [ETRG].mkv": 6801079196}
创建时间: 2019-03-18 03:24:28 大小:6.41 GB 文件数量:15 热度:4 最近下载:2024-12-09 06:55:01
    ... 2013 BluRay 720p DTS x264-MgB [ETRG] (Sample).mkv": 52169807}, "Screens ... 2013 BluRay 720p DTS x264-MgB [ETRG] English.srt": 75569, " ... 2013 BluRay 720p DTS x264-MgB [ETRG] Finnish.srt": 49938, " ... 2013 BluRay 720p DTS x264-MgB [ETRG] Turkish.srt": 60974}, "Box ...
创建时间: 2019-03-18 23:39:34 大小:4.41 GB 文件数量:18 热度:4 最近下载:2025-08-26 08:46:02
    {"inf.nfo": 3090, "The Legend of Drunken Master 1994 BluRay 720p DTS x264-MgB [ETRG].mkv": 4107079083}
创建时间: 2019-03-19 05:15:19 大小:3.83 GB 文件数量:2 热度:3 最近下载:2025-02-18 11:57:02
    {"goblin.works.garage.s01e02.mgb.speedster.hdtv.x264-crimson.nfo": 817, "Goblin.Works.Garage.S01E02.MGB.Speedster.HDTV.x264-CRiMSON[N1C].mkv": 296312482}
创建时间: 2019-03-19 12:47:53 大小:282.59 MB 文件数量:2 热度:7 最近下载:2025-08-04 16:12:10
    ... 2013 BluRay 720p DTS x264-MgB [ETRG] (Sample).mkv": 47944545}, " ... 2013 BluRay 720p DTS x264-MgB [ETRG] English.srt": 78151, " ... 2013 BluRay 720p DTS x264-MgB [ETRG] Norwegian.srt": 75040, " ... 2013 BluRay 720p DTS x264-MgB [ETRG] Vietnamese.srt": 150218}, " ...
创建时间: 2019-03-19 23:27:35 大小:4.41 GB 文件数量:22 热度:7 最近下载:2022-04-08 06:18:39